Time;durP1;ratioP1;P1;durP2;ratioP2;P2;SDS_P1;SDS_P2;PMS_P1;PMS_P2;Temp;Humidity;BMP_temperature;BMP_pressure;BME280_temperature;BME280_humidity;BME280_pressure;Samples;Min_cycle;Max_cycle;Signal;HPM_P1;HPM_P2
2023/07/02 00:02:00;;;;;;;19.17;17.98;;;;;;;18.73;79.98;97428.03;5040516;28;20111;-74
2023/07/02 00:04:26;;;;;;;15.95;14.77;;;;;;;18.75;80.36;97433.97;5066757;28;20063;-73
2023/07/02 00:06:51;;;;;;;12.80;12.00;;;;;;;18.88;79.67;97427.59;5060478;28;20103;-72
2023/07/02 00:09:16;;;;;;;12.10;11.30;;;;;;;18.82;79.99;97423.41;5054756;28;20044;-72
2023/07/02 00:11:43;;;;;;;10.55;9.95;;;;;;;18.95;79.71;97425.19;5033609;28;20505;-72
2023/07/02 00:14:09;;;;;;;13.32;12.63;;;;;;;19.08;79.52;97418.00;5049903;28;20470;-72
2023/07/02 00:16:37;;;;;;;10.98;10.10;;;;;;;18.97;79.44;97417.53;5040441;28;20107;-73
2023/07/02 00:19:02;;;;;;;10.57;9.82;;;;;;;18.71;79.88;97422.09;5049744;28;20115;-74
2023/07/02 00:21:28;;;;;;;9.38;8.80;;;;;;;18.85;79.29;97420.06;5061762;28;20056;-73
2023/07/02 00:23:59;;;;;;;10.18;9.23;;;;;;;19.03;78.76;97427.16;5071101;28;20041;-74
2023/07/02 00:26:26;;;;;;;5.00;4.47;;;;;;;18.91;79.54;97423.41;5059345;28;20510;-75
2023/07/02 00:28:53;;;;;;;7.45;6.75;;;;;;;18.89;80.06;97428.38;5051080;28;20020;-74
2023/07/02 00:31:18;;;;;;;7.57;6.72;;;;;;;18.70;80.14;97430.56;5062570;28;20033;-74
2023/07/02 00:33:44;;;;;;;7.70;7.03;;;;;;;18.68;79.69;97428.16;5034106;28;20028;-73
2023/07/02 00:36:14;;;;;;;12.07;11.27;;;;;;;18.90;79.49;97428.09;5053987;28;20060;-74
2023/07/02 00:38:47;;;;;;;8.45;7.65;;;;;;;18.72;79.86;97434.59;5073029;28;20037;-74
2023/07/02 00:41:13;;;;;;;7.05;6.20;;;;;;;18.53;80.42;97434.84;5057329;28;20036;-75
2023/07/02 00:43:43;;;;;;;7.45;6.88;;;;;;;18.56;80.07;97439.66;5054062;28;20036;-74
2023/07/02 00:46:21;;;;;;;7.55;6.95;;;;;;;18.65;80.28;97436.97;5048786;28;20036;-75
2023/07/02 00:48:49;;;;;;;7.55;6.95;;;;;;;18.33;80.87;97440.00;5020959;28;20116;-74
2023/07/02 00:51:15;;;;;;;5.38;4.97;;;;;;;18.70;79.61;97438.75;5034179;28;20036;-74
2023/07/02 00:53:41;;;;;;;5.40;4.90;;;;;;;18.70;79.51;97431.38;5064887;28;20033;-74
2023/07/02 00:56:07;;;;;;;6.68;5.35;;;;;;;18.66;80.40;97437.78;5068915;28;20035;-73
2023/07/02 00:58:34;;;;;;;5.68;4.90;;;;;;;18.79;79.23;97436.84;5064909;28;20033;-72
2023/07/02 01:01:00;;;;;;;5.95;5.38;;;;;;;18.52;79.79;97443.34;5050356;28;20035;-72
2023/07/02 01:03:25;;;;;;;9.18;8.50;;;;;;;18.58;79.38;97442.06;5053374;28;20108;-72
2023/07/02 01:05:50;;;;;;;6.63;6.10;;;;;;;18.21;81.15;97446.03;5066832;28;20475;-72
2023/07/02 01:08:16;;;;;;;8.55;7.95;;;;;;;18.24;81.01;97441.88;5025380;28;20032;-73
2023/07/02 01:10:44;;;;;;;11.65;10.43;;;;;;;18.27;80.58;97454.88;5055380;28;20021;-73
2023/07/02 01:13:14;;;;;;;7.97;7.28;;;;;;;18.22;81.11;97455.81;5052964;28;20048;-73
2023/07/02 01:15:40;;;;;;;9.65;8.85;;;;;;;18.25;80.72;97454.41;5053329;28;20095;-73
2023/07/02 01:18:05;;;;;;;8.18;7.47;;;;;;;18.16;80.65;97445.34;5036542;28;20021;-73
2023/07/02 01:20:32;;;;;;;8.15;7.45;;;;;;;18.24;80.59;97452.78;5053168;28;20033;-74
2023/07/02 01:23:02;;;;;;;8.98;8.27;;;;;;;18.11;80.49;97448.22;5042227;28;20471;-74
2023/07/02 01:25:29;;;;;;;9.15;8.38;;;;;;;17.86;80.94;97447.72;5082843;28;20089;-74
2023/07/02 01:27:58;;;;;;;9.05;8.25;;;;;;;18.03;80.80;97449.75;5046128;28;20017;-74
2023/07/02 01:30:24;;;;;;;9.20;8.30;;;;;;;17.81;81.73;97461.44;5073151;28;20032;-74
2023/07/02 01:32:49;;;;;;;9.80;8.55;;;;;;;17.63;82.17;97454.25;5062683;28;20395;-75
2023/07/02 01:35:16;;;;;;;9.93;9.00;;;;;;;17.57;81.76;97455.50;5069798;28;20429;-73
2023/07/02 01:37:41;;;;;;;9.55;8.68;;;;;;;17.40;82.57;97459.94;5064318;28;20070;-74
2023/07/02 01:40:10;;;;;;;8.80;7.97;;;;;;;17.44;82.46;97461.75;5069453;28;20066;-73
2023/07/02 01:42:36;;;;;;;8.65;7.93;;;;;;;17.27;82.98;97461.56;5056269;28;20031;-73
2023/07/02 01:45:02;;;;;;;9.40;8.50;;;;;;;17.46;81.98;97459.50;5069601;28;20036;-73
2023/07/02 01:47:27;;;;;;;9.35;8.55;;;;;;;17.36;82.05;97454.31;5066121;28;20025;-73
2023/07/02 01:49:53;;;;;;;9.65;8.80;;;;;;;17.25;82.53;97459.16;5052659;28;20036;-73
2023/07/02 01:52:18;;;;;;;9.80;8.95;;;;;;;17.30;81.98;97455.53;5072612;28;20021;-73
2023/07/02 01:54:45;;;;;;;9.13;8.10;;;;;;;17.68;81.37;97470.50;5055375;28;20036;-73
2023/07/02 01:57:10;;;;;;;8.60;7.72;;;;;;;17.50;81.66;97460.53;5089396;28;20035;-73
2023/07/02 01:59:36;;;;;;;7.93;7.32;;;;;;;17.62;81.31;97476.38;5054869;28;20037;-73
2023/07/02 02:02:02;;;;;;;9.82;9.10;;;;;;;17.46;81.86;97470.41;5051318;28;20032;-73
2023/07/02 02:04:27;;;;;;;12.13;11.18;;;;;;;17.61;81.08;97477.47;5055801;28;20033;-73
2023/07/02 02:06:53;;;;;;;11.93;11.02;;;;;;;17.44;81.31;97483.53;5043001;28;20028;-75
2023/07/02 02:09:18;;;;;;;11.82;11.02;;;;;;;17.50;81.09;97474.16;5055381;28;20025;-75
2023/07/02 02:11:46;;;;;;;10.85;9.85;;;;;;;17.53;81.22;97476.25;5072355;28;20083;-75
2023/07/02 02:14:11;;;;;;;9.70;9.00;;;;;;;17.53;81.15;97472.72;5051862;28;20178;-74
2023/07/02 02:16:37;;;;;;;9.82;9.10;;;;;;;17.52;80.76;97477.41;5063686;28;20065;-74
2023/07/02 02:19:03;;;;;;;8.65;5.40;;;;;;;17.74;80.84;97476.59;5051973;28;20492;-74
2023/07/02 02:21:28;;;;;;;8.02;7.32;;;;;;;17.58;80.89;97475.34;5052156;28;20075;-74
2023/07/02 02:23:54;;;;;;;7.57;6.88;;;;;;;17.61;81.06;97478.28;5051529;28;20070;-74
2023/07/02 02:26:21;;;;;;;9.30;8.40;;;;;;;17.86;79.93;97485.84;5062500;28;20093;-75
2023/07/02 02:28:47;;;;;;;8.65;7.85;;;;;;;17.92;79.80;97490.06;5065460;28;20041;-75
2023/07/02 02:31:12;;;;;;;8.57;7.88;;;;;;;17.80;79.74;97491.72;5051937;28;20027;-75
2023/07/02 02:33:38;;;;;;;10.02;9.27;;;;;;;17.62;80.61;97485.31;5021520;28;20032;-75
2023/07/02 02:36:04;;;;;;;10.80;10.00;;;;;;;17.72;80.64;97487.81;5051713;28;20086;-75
2023/07/02 02:38:30;;;;;;;12.73;11.80;;;;;;;17.78;80.20;97488.50;5038868;28;20031;-75
2023/07/02 02:40:55;;;;;;;11.70;10.90;;;;;;;17.62;80.61;97485.31;5044879;28;20025;-75
2023/07/02 02:43:20;;;;;;;12.00;11.00;;;;;;;17.87;79.57;97484.75;5018558;28;20067;-73
2023/07/02 02:45:47;;;;;;;11.18;10.38;;;;;;;17.70;80.29;97492.78;5045117;28;20115;-72
2023/07/02 02:48:12;;;;;;;12.77;11.75;;;;;;;17.77;79.75;97487.69;5067878;28;20075;-72
2023/07/02 02:50:42;;;;;;;10.38;9.57;;;;;;;18.02;79.10;97493.69;5041710;28;20033;-72
2023/07/02 02:53:09;;;;;;;10.90;10.00;;;;;;;17.86;79.71;97490.50;5068045;28;20123;-73
2023/07/02 02:55:36;;;;;;;10.30;9.38;;;;;;;17.88;79.35;97477.34;5071158;28;20104;-74
2023/07/02 02:58:01;;;;;;;11.20;10.25;;;;;;;17.84;79.55;97488.09;5038044;28;20120;-73
2023/07/02 03:00:26;;;;;;;10.73;9.80;;;;;;;17.61;80.62;97489.16;5054664;28;20435;-74
2023/07/02 03:02:52;;;;;;;9.52;8.73;;;;;;;17.86;79.08;97485.84;5067440;28;20043;-74
2023/07/02 03:05:18;;;;;;;10.40;9.20;;;;;;;18.04;78.80;97481.31;5062057;28;20096;-73
2023/07/02 03:07:43;;;;;;;9.82;8.93;;;;;;;18.07;78.23;97485.34;5071347;28;20036;-73
2023/07/02 03:10:09;;;;;;;10.80;9.90;;;;;;;18.24;77.94;97490.94;5061347;28;20481;-76
2023/07/02 03:12:35;;;;;;;10.90;10.00;;;;;;;18.47;76.62;97479.72;5068449;28;20087;-73
2023/07/02 03:15:01;;;;;;;10.55;9.75;;;;;;;17.92;77.54;97476.44;5060877;28;20025;-73
2023/07/02 03:17:26;;;;;;;11.10;10.20;;;;;;;17.91;78.09;97488.47;5065686;28;20060;-73
2023/07/02 03:19:52;;;;;;;11.85;10.93;;;;;;;17.72;78.72;97495.97;5041417;28;20020;-73
2023/07/02 03:22:17;;;;;;;11.77;10.95;;;;;;;17.70;79.33;97509.09;5065106;28;20063;-73
2023/07/02 03:24:43;;;;;;;9.95;9.00;;;;;;;17.64;79.96;97499.44;5057875;28;20047;-73
2023/07/02 03:27:08;;;;;;;8.90;7.32;;;;;;;17.66;79.26;97502.66;5062523;28;20045;-74
2023/07/02 03:29:34;;;;;;;10.00;9.30;;;;;;;18.07;78.42;97501.72;5060007;28;20095;-74
2023/07/02 03:32:00;;;;;;;6.53;5.93;;;;;;;17.99;78.08;97505.19;5061530;28;20039;-72
2023/07/02 03:34:26;;;;;;;6.53;5.93;;;;;;;17.73;78.88;97507.69;5059025;28;20021;-76
2023/07/02 03:36:51;;;;;;;5.07;4.63;;;;;;;17.60;79.58;97512.06;5058914;28;20044;-74
2023/07/02 03:39:17;;;;;;;5.80;5.20;;;;;;;17.43;80.22;97514.59;5062494;28;20029;-74
2023/07/02 03:41:43;;;;;;;6.47;5.70;;;;;;;17.39;80.02;97508.13;5057408;28;20041;-74
2023/07/02 03:44:09;;;;;;;6.68;5.25;;;;;;;17.57;79.40;97499.06;5061792;28;20090;-75
2023/07/02 03:46:35;;;;;;;6.97;6.38;;;;;;;17.29;80.12;97502.91;5064069;28;20534;-74
2023/07/02 03:49:00;;;;;;;9.60;8.80;;;;;;;17.32;79.62;97513.16;5063024;28;20774;-74
2023/07/02 03:51:26;;;;;;;9.95;9.05;;;;;;;17.36;79.70;97514.19;5067423;28;20053;-75
2023/07/02 03:53:51;;;;;;;7.53;5.07;;;;;;;17.10;79.73;97516.63;5061090;28;20024;-74
2023/07/02 03:56:17;;;;;;;9.25;8.60;;;;;;;17.12;79.92;97514.41;5058580;28;20043;-74
2023/07/02 03:58:43;;;;;;;9.65;8.82;;;;;;;17.24;79.24;97517.44;5071014;28;20052;-73
2023/07/02 04:01:08;;;;;;;9.73;9.02;;;;;;;17.16;79.43;97511.88;5057401;28;20393;-73
2023/07/02 04:03:34;;;;;;;8.70;8.10;;;;;;;16.94;79.66;97528.13;5060675;28;20017;-71
2023/07/02 04:05:59;;;;;;;8.82;8.13;;;;;;;17.06;79.06;97531.16;5063809;28;20060;-73
2023/07/02 04:08:25;;;;;;;8.70;7.55;;;;;;;17.33;78.42;97536.56;5050480;28;20017;-75
2023/07/02 04:10:50;;;;;;;10.27;6.63;;;;;;;16.90;79.91;97554.28;5063822;28;20068;-74
2023/07/02 04:13:16;;;;;;;6.47;5.82;;;;;;;16.88;80.05;97546.44;5050040;28;20025;-73
2023/07/02 04:15:41;;;;;;;6.13;4.82;;;;;;;16.98;79.81;97551.69;5052982;28;20131;-75
2023/07/02 04:18:07;;;;;;;5.80;4.85;;;;;;;17.07;79.07;97546.34;5060954;28;20029;-74
2023/07/02 04:20:32;;;;;;;10.65;9.75;;;;;;;17.11;78.88;97550.06;5063860;28;20032;-75
2023/07/02 04:22:58;;;;;;;7.80;7.20;;;;;;;16.93;79.63;97553.69;5033844;28;20021;-74
2023/07/02 04:25:23;;;;;;;7.45;6.90;;;;;;;17.08;78.68;97561.56;5051580;28;20458;-75
2023/07/02 04:27:49;;;;;;;6.85;6.15;;;;;;;17.05;78.26;97562.16;5050311;28;20027;-74
2023/07/02 04:30:14;;;;;;;9.38;6.60;;;;;;;17.14;77.94;97571.25;5033759;28;20487;-74
2023/07/02 04:32:40;;;;;;;6.60;6.00;;;;;;;17.32;77.53;97566.81;5051026;28;20087;-75
2023/07/02 04:35:07;;;;;;;6.25;5.60;;;;;;;17.24;77.50;97571.88;5051279;28;20058;-74
2023/07/02 04:37:32;;;;;;;6.30;5.70;;;;;;;17.03;76.68;97573.38;5042189;28;20398;-74
2023/07/02 04:39:57;;;;;;;6.05;5.55;;;;;;;17.26;75.83;97566.94;5070021;28;20040;-73
2023/07/02 04:42:27;;;;;;;5.53;5.00;;;;;;;17.32;76.14;97583.16;5060944;28;20021;-74
2023/07/02 04:44:55;;;;;;;5.20;4.40;;;;;;;17.40;75.66;97569.63;5053801;28;20032;-73
2023/07/02 04:47:20;;;;;;;4.60;3.60;;;;;;;17.34;75.11;97570.84;5057621;28;20025;-73
2023/07/02 04:49:46;;;;;;;4.50;3.20;;;;;;;17.27;75.34;97573.16;5053131;28;20493;-75
2023/07/02 04:52:11;;;;;;;4.03;2.90;;;;;;;17.39;74.59;97578.09;5060201;28;20105;-74
2023/07/02 04:54:37;;;;;;;5.57;3.28;;;;;;;17.37;74.18;97596.66;5049283;28;20115;-74
2023/07/02 04:57:02;;;;;;;44.90;6.55;;;;;;;17.50;73.53;97585.78;5053203;28;20059;-74
2023/07/02 04:59:28;;;;;;;5.22;3.63;;;;;;;17.38;73.43;97588.19;5067106;28;20642;-74
2023/07/02 05:01:53;;;;;;;4.57;3.53;;;;;;;17.48;72.77;97601.59;5059078;28;20083;-74
2023/07/02 05:04:18;;;;;;;8.35;3.28;;;;;;;17.59;72.74;97600.31;5057116;28;20049;-75
2023/07/02 05:06:44;;;;;;;5.43;3.72;;;;;;;17.12;71.23;97589.78;5061075;28;20428;-75
2023/07/02 05:09:09;;;;;;;9.30;4.57;;;;;;;17.43;70.79;97601.72;5050159;28;20036;-76
2023/07/02 05:11:35;;;;;;;5.75;4.10;;;;;;;17.44;70.48;97606.03;5059096;28;20028;-75
2023/07/02 05:14:00;;;;;;;7.68;4.78;;;;;;;17.29;69.29;97606.34;5056464;28;20075;-75
2023/07/02 05:16:26;;;;;;;7.40;5.13;;;;;;;17.30;68.09;97602.50;5063074;28;20510;-75
2023/07/02 05:18:51;;;;;;;8.23;5.07;;;;;;;17.54;66.42;97592.25;5066266;28;20111;-75
2023/07/02 05:21:20;;;;;;;8.30;5.13;;;;;;;17.59;66.10;97594.88;5044993;28;20052;-75
2023/07/02 05:23:46;;;;;;;11.90;5.32;;;;;;;17.68;66.23;97593.03;5056376;28;20064;-75
2023/07/02 05:26:11;;;;;;;10.52;5.07;;;;;;;17.56;66.39;97595.47;5053175;28;20110;-75
2023/07/02 05:28:37;;;;;;;7.30;4.85;;;;;;;17.55;66.61;97601.22;5068391;28;20086;-75
2023/07/02 05:31:02;;;;;;;9.35;5.07;;;;;;;17.69;65.04;97604.75;5056226;28;20021;-75
2023/07/02 05:33:27;;;;;;;9.40;4.70;;;;;;;17.68;65.18;97603.94;5054565;28;20115;-76
2023/07/02 05:35:53;;;;;;;9.02;5.10;;;;;;;17.81;65.03;97614.00;5052787;28;20383;-76
2023/07/02 05:38:19;;;;;;;12.60;4.93;;;;;;;17.63;64.86;97614.13;5068900;28;20047;-76
2023/07/02 05:40:44;;;;;;;11.05;5.47;;;;;;;17.66;63.36;97614.34;5073065;28;20112;-76
2023/07/02 05:43:10;;;;;;;6.97;4.97;;;;;;;18.15;63.93;97613.53;5059325;28;20487;-76
2023/07/02 05:45:35;;;;;;;11.00;4.93;;;;;;;17.87;63.16;97612.78;5055936;28;20031;-76
2023/07/02 05:48:01;;;;;;;8.40;5.20;;;;;;;17.33;64.62;97637.28;5071807;28;20391;-76
2023/07/02 05:50:26;;;;;;;13.10;5.85;;;;;;;17.24;62.31;97625.47;5041345;28;20024;-72
2023/07/02 05:52:52;;;;;;;8.65;4.65;;;;;;;17.46;62.17;97617.41;5053786;28;20505;-76
2023/07/02 05:55:17;;;;;;;10.52;5.50;;;;;;;17.49;61.57;97624.19;5061224;28;20048;-76
2023/07/02 05:57:42;;;;;;;11.80;5.85;;;;;;;17.56;61.38;97628.16;5054615;28;20052;-76
2023/07/02 06:00:08;;;;;;;13.10;5.78;;;;;;;17.79;61.33;97631.75;5047712;28;20028;-76
2023/07/02 06:02:39;;;;;;;11.05;5.90;;;;;;;17.40;61.62;97634.16;5068890;28;20123;-76
2023/07/02 06:05:05;;;;;;;7.72;5.20;;;;;;;17.48;62.15;97642.41;5072558;28;20142;-76
2023/07/02 06:07:33;;;;;;;9.68;5.18;;;;;;;17.40;61.73;97653.22;5059440;28;20122;-76
2023/07/02 06:09:59;;;;;;;9.75;5.13;;;;;;;17.97;61.66;97643.66;5052703;28;20131;-74
2023/07/02 06:12:24;;;;;;;9.20;5.60;;;;;;;18.00;60.76;97643.84;5055613;28;20048;-74
2023/07/02 06:14:50;;;;;;;8.13;5.60;;;;;;;18.07;61.72;97643.41;5052525;28;20048;-76
2023/07/02 06:17:15;;;;;;;10.98;5.20;;;;;;;17.82;60.01;97645.59;5068366;28;20024;-74
2023/07/02 06:19:40;;;;;;;7.18;5.03;;;;;;;17.98;61.34;97651.50;5051968;28;20534;-75
2023/07/02 06:22:06;;;;;;;10.55;5.18;;;;;;;17.75;60.92;97647.91;5057109;28;20020;-75
2023/07/02 06:24:32;;;;;;;9.38;5.32;;;;;;;17.50;60.98;97651.13;5054130;28;20037;-75
2023/07/02 06:26:57;;;;;;;10.35;5.50;;;;;;;17.67;59.56;97656.78;5036460;28;20021;-75
2023/07/02 06:29:23;;;;;;;7.85;5.38;;;;;;;17.90;59.34;97653.03;5071817;28;20032;-76
2023/07/02 06:31:49;;;;;;;12.50;6.03;;;;;;;18.31;58.83;97650.25;5070181;28;20031;-75
2023/07/02 06:34:15;;;;;;;11.88;5.55;;;;;;;18.27;59.41;97651.16;5060074;28;20036;-75
2023/07/02 06:36:41;;;;;;;11.43;6.25;;;;;;;18.58;58.03;97649.34;5041762;28;20032;-75
2023/07/02 06:39:06;;;;;;;9.07;5.18;;;;;;;18.80;57.90;97652.09;5063145;28;20036;-75
2023/07/02 06:41:32;;;;;;;9.43;5.63;;;;;;;18.73;58.05;97657.19;5065347;28;20378;-75
2023/07/02 06:43:57;;;;;;;9.73;5.47;;;;;;;18.48;58.97;97638.69;5043620;28;20083;-75
2023/07/02 06:46:22;;;;;;;8.63;5.28;;;;;;;18.30;57.97;97647.78;5058090;28;20021;-75
2023/07/02 06:48:48;;;;;;;10.77;5.78;;;;;;;18.86;56.70;97656.31;5062927;28;20031;-75
2023/07/02 06:51:14;;;;;;;9.55;4.90;;;;;;;18.83;56.85;97646.03;5066015;28;20126;-75
2023/07/02 06:53:41;;;;;;;9.50;5.50;;;;;;;18.53;57.92;97653.00;5060900;28;20040;-75
2023/07/02 06:56:08;;;;;;;9.27;5.78;;;;;;;18.38;57.49;97660.72;5057813;28;20025;-75
2023/07/02 06:58:33;;;;;;;9.45;5.22;;;;;;;18.47;57.63;97658.91;5051391;28;20083;-75
2023/07/02 07:00:58;;;;;;;10.32;5.32;;;;;;;18.21;58.28;97666.00;5064818;28;20498;-75
2023/07/02 07:03:24;;;;;;;9.77;5.95;;;;;;;18.36;58.34;97652.03;5061231;28;20047;-75
2023/07/02 07:05:49;;;;;;;9.23;5.30;;;;;;;18.77;57.42;97665.53;5057783;28;20032;-76
2023/07/02 07:08:15;;;;;;;10.05;5.65;;;;;;;18.89;57.34;97661.16;5062610;28;20514;-75
2023/07/02 07:10:40;;;;;;;8.10;5.32;;;;;;;18.33;57.53;97658.91;5064662;28;20020;-75
2023/07/02 07:13:06;;;;;;;11.68;5.90;;;;;;;18.53;57.74;97663.91;5059411;28;20033;-75
2023/07/02 07:15:34;;;;;;;8.63;5.43;;;;;;;18.59;56.89;97654.53;5070480;28;20347;-75
2023/07/02 07:17:59;;;;;;;8.63;4.93;;;;;;;18.41;57.74;97660.88;5052174;28;20072;-72
2023/07/02 07:20:24;;;;;;;9.40;5.22;;;;;;;18.45;56.95;97659.22;5052877;28;20428;-75
2023/07/02 07:22:50;;;;;;;12.30;5.53;;;;;;;18.55;57.53;97669.09;5063616;28;20033;-76
2023/07/02 07:25:15;;;;;;;8.48;5.20;;;;;;;18.71;58.09;97653.97;5047645;28;20359;-76
2023/07/02 07:27:41;;;;;;;10.07;5.95;;;;;;;19.08;56.13;97661.75;5058750;28;20120;-76
2023/07/02 07:30:06;;;;;;;9.60;6.10;;;;;;;19.09;56.06;97660.63;5051350;28;20471;-75
2023/07/02 07:32:32;;;;;;;8.00;5.32;;;;;;;19.50;55.50;97659.59;5071755;28;20037;-76
2023/07/02 07:34:57;;;;;;;9.55;5.07;;;;;;;19.80;54.83;97647.81;5056550;28;20094;-76
2023/07/02 07:37:25;;;;;;;8.18;4.97;;;;;;;19.30;54.42;97644.50;5063898;28;20391;-75
2023/07/02 07:39:50;;;;;;;10.65;5.15;;;;;;;19.28;54.23;97669.41;5048232;28;20029;-78
2023/07/02 07:42:19;;;;;;;8.68;5.85;;;;;;;19.51;53.61;97655.75;5053444;28;20052;-77
2023/07/02 07:44:45;;;;;;;9.52;4.93;;;;;;;19.87;53.23;97667.28;5056692;28;20036;-74
2023/07/02 07:47:11;;;;;;;8.90;4.97;;;;;;;20.04;53.02;97663.78;5044888;28;20115;-75
2023/07/02 07:49:36;;;;;;;8.10;5.43;;;;;;;20.04;53.21;97661.06;5051894;28;20031;-77
2023/07/02 07:52:03;;;;;;;23.23;6.35;;;;;;;20.18;53.32;97665.28;5069801;28;20039;-77
2023/07/02 07:54:28;;;;;;;10.82;4.97;;;;;;;19.79;53.26;97673.53;5053196;28;20063;-77
2023/07/02 07:56:54;;;;;;;10.05;5.03;;;;;;;20.03;52.41;97673.91;5050141;28;20495;-77
2023/07/02 07:59:19;;;;;;;9.15;5.80;;;;;;;19.92;52.74;97673.41;5066414;28;20043;-77
2023/07/02 08:01:46;;;;;;;8.60;5.30;;;;;;;19.73;52.87;97675.59;5061607;28;20045;-77
2023/07/02 08:04:11;;;;;;;9.52;5.53;;;;;;;19.94;52.71;97675.81;5046633;28;20021;-77
2023/07/02 08:06:37;;;;;;;9.73;6.07;;;;;;;20.82;52.43;97663.53;5058275;28;20127;-77
2023/07/02 08:09:03;;;;;;;9.77;5.72;;;;;;;20.54;51.66;97667.75;5053233;28;20017;-77
2023/07/02 08:11:28;;;;;;;8.45;5.47;;;;;;;20.19;52.47;97672.34;5053162;28;20079;-77
2023/07/02 08:13:54;;;;;;;9.70;5.28;;;;;;;20.25;51.41;97679.31;5068397;28;20025;-77
2023/07/02 08:16:19;;;;;;;9.32;5.72;;;;;;;20.37;51.19;97679.50;5041055;28;20119;-77
2023/07/02 08:18:45;;;;;;;11.15;6.28;;;;;;;20.20;52.27;97670.41;5051515;28;20025;-77
2023/07/02 08:21:11;;;;;;;9.40;5.72;;;;;;;21.14;51.02;97678.69;5069940;28;20078;-76
2023/07/02 08:23:37;;;;;;;9.63;5.57;;;;;;;20.41;51.94;97675.00;5050658;28;20017;-77
2023/07/02 08:26:03;;;;;;;10.27;5.20;;;;;;;20.44;50.48;97668.06;5070995;28;20081;-77
2023/07/02 08:28:28;;;;;;;10.00;5.30;;;;;;;20.34;50.50;97668.38;5069706;28;20111;-77
2023/07/02 08:30:53;;;;;;;9.05;5.30;;;;;;;21.04;50.07;97674.34;5053003;28;20523;-77
2023/07/02 08:33:20;;;;;;;8.80;5.70;;;;;;;20.40;50.25;97678.03;5069593;28;20032;-77
2023/07/02 08:35:45;;;;;;;11.07;5.75;;;;;;;20.31;50.67;97675.28;5062456;28;20600;-77
2023/07/02 08:38:10;;;;;;;8.70;4.95;;;;;;;20.24;50.33;97674.97;5064771;28;20044;-77
2023/07/02 08:40:36;;;;;;;7.65;4.50;;;;;;;20.71;50.13;97677.88;5069652;28;20032;-77
2023/07/02 08:43:01;;;;;;;7.38;5.00;;;;;;;20.75;49.85;97682.38;5057284;28;20333;-77
2023/07/02 08:45:26;;;;;;;7.25;5.13;;;;;;;20.81;49.83;97677.56;5049408;28;20186;-77
2023/07/02 08:47:56;;;;;;;9.82;5.03;;;;;;;20.67;48.81;97681.28;5049797;28;20067;-77
2023/07/02 08:50:22;;;;;;;8.68;4.90;;;;;;;20.92;49.76;97678.84;5063762;28;20037;-77
2023/07/02 08:52:47;;;;;;;8.80;5.10;;;;;;;20.66;49.04;97681.59;5066741;28;20093;-77
2023/07/02 08:55:13;;;;;;;11.43;5.97;;;;;;;20.40;49.79;97689.78;5060669;28;20040;-77
2023/07/02 08:57:38;;;;;;;9.15;5.32;;;;;;;20.77;48.59;97679.34;5053910;28;20036;-77
2023/07/02 09:00:11;;;;;;;8.68;5.30;;;;;;;21.19;48.61;97681.25;5073271;28;20036;-77
2023/07/02 09:02:36;;;;;;;9.32;5.13;;;;;;;21.73;48.20;97685.91;5061268;28;20076;-77
2023/07/02 09:05:03;;;;;;;8.60;5.60;;;;;;;21.35;49.33;97682.34;5065070;28;20056;-77
2023/07/02 09:07:28;;;;;;;7.97;5.05;;;;;;;21.93;47.72;97682.47;5033131;28;20040;-77
2023/07/02 09:09:53;;;;;;;8.88;5.22;;;;;;;22.59;46.70;97672.53;5044671;28;20355;-77
2023/07/02 09:12:25;;;;;;;7.60;5.20;;;;;;;22.38;45.98;97676.41;5059573;28;20040;-77
2023/07/02 09:15:08;;;;;;;8.98;5.07;;;;;;;21.89;47.40;97700.72;5065097;28;20391;-77
2023/07/02 09:17:37;;;;;;;6.78;5.25;;;;;;;20.97;49.39;97698.66;5070991;28;20068;-77
2023/07/02 09:20:06;;;;;;;8.40;5.47;;;;;;;20.98;49.56;97710.41;5061436;28;20380;-77
2023/07/02 09:22:32;;;;;;;8.85;5.25;;;;;;;21.42;48.75;97693.63;5066120;28;20097;-77
2023/07/02 09:24:58;;;;;;;9.27;5.35;;;;;;;21.18;49.26;97688.66;5048169;28;20467;-77
2023/07/02 09:27:41;;;;;;;9.55;5.55;;;;;;;21.61;48.98;97694.00;5059473;28;20126;-77
2023/07/02 09:30:15;;;;;;;9.20;5.43;;;;;;;21.03;49.62;97696.53;5042607;28;20394;-77
2023/07/02 09:32:47;;;;;;;10.38;5.63;;;;;;;21.08;50.38;97701.88;5055918;28;20028;-77
2023/07/02 09:35:13;;;;;;;10.07;6.05;;;;;;;20.70;50.12;97706.41;5069357;28;20036;-77
2023/07/02 09:37:39;;;;;;;8.57;5.80;;;;;;;21.04;49.48;97709.97;5062590;28;20028;-77
2023/07/02 09:40:06;;;;;;;8.98;5.40;;;;;;;21.35;49.22;97698.78;5069266;28;20040;-77
2023/07/02 09:42:31;;;;;;;11.00;5.68;;;;;;;21.82;48.45;97700.38;5046964;28;20028;-77
2023/07/02 09:44:58;;;;;;;8.25;5.38;;;;;;;21.71;48.10;97696.41;5058664;28;20032;-77
2023/07/02 09:47:24;;;;;;;9.60;5.40;;;;;;;21.93;48.13;97687.97;5052332;28;20025;-77
2023/07/02 09:50:05;;;;;;;7.97;5.43;;;;;;;21.68;47.78;97691.56;5032943;28;20024;-77
2023/07/02 09:52:31;;;;;;;9.10;5.63;;;;;;;21.12;49.32;97694.66;5065874;28;20437;-77
2023/07/02 09:54:57;;;;;;;9.70;5.60;;;;;;;21.24;48.68;97692.84;5058762;28;20031;-74
2023/07/02 09:57:22;;;;;;;7.00;5.35;;;;;;;21.56;48.01;97696.97;5060091;28;20403;-76
2023/07/02 09:59:48;;;;;;;9.65;5.97;;;;;;;21.50;48.66;97706.47;5048871;28;20025;-76
2023/07/02 10:02:14;;;;;;;10.13;5.80;;;;;;;21.65;48.43;97703.22;5065237;28;20041;-76
2023/07/02 10:04:44;;;;;;;10.35;6.10;;;;;;;22.22;49.05;97694.59;5058421;28;20490;-76
2023/07/02 10:07:09;;;;;;;8.82;5.88;;;;;;;21.49;49.91;97698.59;5059791;28;20083;-76
2023/07/02 10:09:42;;;;;;;10.02;6.13;;;;;;;22.05;49.46;97702.91;5065467;28;20017;-76
2023/07/02 10:12:18;;;;;;;9.73;6.30;;;;;;;21.97;49.07;97705.38;5065245;28;20043;-76
2023/07/02 10:14:45;;;;;;;8.15;6.15;;;;;;;22.55;48.65;97698.22;5060188;28;20394;-76
2023/07/02 10:17:10;;;;;;;9.25;5.80;;;;;;;21.99;49.43;97702.28;5058324;28;20056;-76
2023/07/02 10:19:36;;;;;;;9.27;6.35;;;;;;;21.50;49.44;97705.66;5063581;28;20120;-76
2023/07/02 10:22:07;;;;;;;9.55;5.80;;;;;;;22.00;48.98;97710.19;5064959;28;20034;-76
2023/07/02 10:24:32;;;;;;;10.80;6.32;;;;;;;21.57;48.52;97706.78;5043993;28;20048;-76
2023/07/02 10:27:00;;;;;;;12.50;6.03;;;;;;;21.47;49.36;97717.28;5057268;28;20088;-76
2023/07/02 10:29:28;;;;;;;10.98;6.72;;;;;;;21.62;49.27;97714.81;5060545;28;20074;-76
2023/07/02 10:31:55;;;;;;;10.05;6.85;;;;;;;21.41;49.14;97721.31;5057971;28;20077;-76
2023/07/02 10:34:30;;;;;;;19.85;13.95;;;;;;;21.86;49.00;97717.03;5064829;28;20115;-76
2023/07/02 10:36:56;;;;;;;8.63;7.05;;;;;;;21.25;48.83;97716.38;5070426;28;20491;-76
2023/07/02 10:39:22;;;;;;;11.70;6.88;;;;;;;21.52;49.15;97715.16;5063629;28;20047;-76
2023/07/02 10:41:47;;;;;;;9.25;6.28;;;;;;;21.25;50.12;97721.03;5066202;28;20040;-76
2023/07/02 10:44:12;;;;;;;11.02;7.68;;;;;;;21.33;49.92;97728.44;5060761;28;20028;-76
2023/07/02 10:46:48;;;;;;;14.55;8.98;;;;;;;21.30;49.82;97720.88;5070555;28;20390;-76
2023/07/02 10:49:14;;;;;;;;;;;;;;;21.70;49.02;97727.72;5055328;28;20082;-76
2023/07/02 10:51:39;;;;;;;11.13;7.78;;;;;;;21.52;48.34;97731.59;5066371;28;19909;-76
2023/07/02 10:54:05;;;;;;;11.60;7.13;;;;;;;21.48;48.37;97727.09;5063511;28;20036;-76
2023/07/02 10:56:31;;;;;;;13.38;8.13;;;;;;;21.15;48.78;97733.13;5058715;28;20103;-76
2023/07/02 10:58:56;;;;;;;10.93;7.13;;;;;;;20.97;49.71;97741.66;5067656;28;20052;-76
2023/07/02 11:01:27;;;;;;;11.40;7.22;;;;;;;21.06;50.18;97745.22;5040488;28;20067;-76
2023/07/02 11:04:00;;;;;;;11.65;7.07;;;;;;;21.13;49.87;97751.00;5062568;28;20059;-75
2023/07/02 11:06:30;;;;;;;12.18;7.40;;;;;;;20.88;49.81;97722.50;5047367;28;20051;-75
2023/07/02 11:08:56;;;;;;;28.15;8.23;;;;;;;21.18;49.44;97737.16;5064712;28;20476;-76
2023/07/02 11:11:22;;;;;;;16.67;15.18;;;;;;;21.73;48.38;97737.19;5050671;28;20124;-76
2023/07/02 11:13:51;;;;;;;12.15;7.57;;;;;;;21.71;48.39;97739.47;5063228;28;20037;-76
2023/07/02 11:16:25;;;;;;;13.60;8.43;;;;;;;21.90;47.99;97740.72;5043823;28;20034;-76
2023/07/02 11:19:10;;;;;;;10.50;7.05;;;;;;;22.62;45.00;97739.72;5058147;28;20469;-75
2023/07/02 11:21:36;;;;;;;10.13;7.03;;;;;;;24.10;43.39;97731.38;5061629;28;20033;-75
2023/07/02 11:24:06;;;;;;;11.75;6.15;;;;;;;23.14;43.08;97731.88;5021743;28;20036;-75
2023/07/02 11:26:39;;;;;;;8.07;6.10;;;;;;;24.31;42.12;97720.25;5058528;28;20174;-77